Terminal Aerodrome Forecast
Issued by NWS Louisville, KY

Home | Current Version | Previous Version | Text Only | Print | Product List | Glossary On
Versions: 1 2 3 4 5 6 7 8 9 10 11 12 13 14 15
589
FTUS43 KLMK 271729
TAFLEX
TAF
KLEX 271729Z 2718/2818 15007KT P6SM OVC070
     FM280100 14005KT P6SM SCT100
     FM281100 17007KT P6SM OVC025
     FM281300 18010G18KT 6SM -SHRA BR OVC010=

USA.gov is the U.S. government's official web portal to all federal, state and local government web resources and services.